createdAt,value
2022-10-11T00:01:06.764Z,5.57
2022-10-11T00:03:35.061Z,5.22
2022-10-11T00:06:06.127Z,5.03
2022-10-11T00:08:35.142Z,5.37
2022-10-11T00:11:05.601Z,5.75
2022-10-11T00:13:34.282Z,5.47
2022-10-11T00:16:03.653Z,4.93
2022-10-11T00:18:35.009Z,5.38
2022-10-11T00:21:07.350Z,4.87
2022-10-11T00:23:36.152Z,4.97
2022-10-11T00:26:07.222Z,5.50
2022-10-11T00:28:36.224Z,5.25
2022-10-11T00:31:08.882Z,5.15
2022-10-11T00:33:37.589Z,4.97
2022-10-11T00:36:08.805Z,5.85
2022-10-11T00:38:37.680Z,5.15
2022-10-11T00:41:06.113Z,5.60
2022-10-11T00:43:35.771Z,5.82
2022-10-11T00:46:08.529Z,5.17
2022-10-11T00:48:41.846Z,5.25
2022-10-11T00:51:18.199Z,6.28
2022-10-11T00:53:48.483Z,5.47
2022-10-11T00:56:21.924Z,5.60
2022-10-11T00:58:50.491Z,5.80
2022-10-11T01:01:19.027Z,5.50
2022-10-11T01:03:48.288Z,7.32
2022-10-11T01:06:17.824Z,5.80
2022-10-11T01:08:46.492Z,5.30
2022-10-11T01:11:19.554Z,5.20
2022-10-11T01:13:57.353Z,5.30
2022-10-11T01:16:33.046Z,5.50
2022-10-11T01:19:23.198Z,5.57
2022-10-11T01:21:58.776Z,5.25
2022-10-11T01:24:54.312Z,5.70
2022-10-11T01:27:46.554Z,5.05
2022-10-11T01:30:25.864Z,5.30
2022-10-11T01:33:08.321Z,5.45
2022-10-11T01:35:42.325Z,5.70
2022-10-11T01:38:18.580Z,5.07
2022-10-11T01:40:52.485Z,5.25
2022-10-11T01:43:22.711Z,5.00
2022-10-11T01:45:56.054Z,4.93
2022-10-11T01:48:24.503Z,5.53
2022-10-11T01:50:54.041Z,5.57
2022-10-11T01:53:41.409Z,5.30
2022-10-11T01:56:23.667Z,5.63
2022-10-11T01:59:04.738Z,4.97
2022-10-11T02:01:43.972Z,5.40
2022-10-11T02:04:18.599Z,5.83
2022-10-11T02:06:52.774Z,5.20
2022-10-11T02:09:26.708Z,5.28
2022-10-11T02:11:58.031Z,5.35
2022-10-11T02:14:28.900Z,5.30
2022-10-11T02:17:04.116Z,5.40
2022-10-11T02:19:38.563Z,5.28
2022-10-11T02:22:11.147Z,5.80
2022-10-11T02:24:42.360Z,5.10
2022-10-11T02:27:12.551Z,5.70
2022-10-11T02:29:42.956Z,5.93
2022-10-11T02:32:13.763Z,5.50
2022-10-11T02:34:47.829Z,5.53
2022-10-11T02:37:21.880Z,5.03
2022-10-11T02:39:55.873Z,5.80
2022-10-11T02:42:29.817Z,5.80
2022-10-11T02:45:01.884Z,5.10
2022-10-11T02:47:32.561Z,5.80
2022-10-11T02:50:00.963Z,5.30
2022-10-11T02:52:29.521Z,5.22
2022-10-11T02:54:57.953Z,5.40
2022-10-11T02:57:26.432Z,4.97
2022-10-11T02:59:54.500Z,5.13
2022-10-11T03:02:22.967Z,4.95
2022-10-11T03:04:52.532Z,5.25
2022-10-11T03:07:20.977Z,4.83
2022-10-11T03:09:49.420Z,5.75
2022-10-11T03:12:17.923Z,5.38
2022-10-11T03:14:47.101Z,4.90
2022-10-11T03:17:35.171Z,5.45
2022-10-11T03:20:06.284Z,4.90
2022-10-11T03:22:34.752Z,5.32
2022-10-11T03:25:04.578Z,5.40
2022-10-11T03:27:33.490Z,5.00
2022-10-11T03:30:02.236Z,5.00
2022-10-11T03:32:30.816Z,4.80
2022-10-11T03:34:59.543Z,4.88
2022-10-11T03:37:29.121Z,5.07
2022-10-11T03:39:57.589Z,4.97
2022-10-11T03:42:26.011Z,5.22
2022-10-11T03:44:54.396Z,5.40
2022-10-11T03:47:22.835Z,5.40
2022-10-11T03:49:51.256Z,5.55
2022-10-11T03:52:19.629Z,5.20
2022-10-11T03:54:49.261Z,5.05
2022-10-11T03:57:17.645Z,4.97
2022-10-11T03:59:46.055Z,5.35
2022-10-11T04:02:14.529Z,5.55
2022-10-11T04:04:43.140Z,4.72
2022-10-11T04:07:11.906Z,4.72
2022-10-11T04:09:40.077Z,5.17
2022-10-11T04:12:09.779Z,4.75
2022-10-11T04:14:38.211Z,5.28
2022-10-11T04:17:07.259Z,5.18
2022-10-11T04:19:36.824Z,5.55
2022-10-11T04:22:05.589Z,5.40
2022-10-11T04:24:34.146Z,5.22
2022-10-11T04:27:02.741Z,5.13
2022-10-11T04:29:32.881Z,4.70
2022-10-11T04:32:01.450Z,5.00
2022-10-11T04:34:29.961Z,4.63
2022-10-11T04:36:58.427Z,5.07
2022-10-11T04:39:26.911Z,5.20
2022-10-11T04:41:57.914Z,4.97
2022-10-11T04:44:26.366Z,4.80
2022-10-11T04:46:57.790Z,5.30
2022-10-11T04:49:27.028Z,4.60
2022-10-11T04:52:10.108Z,5.05
2022-10-11T04:54:38.638Z,4.68
2022-10-11T04:57:16.079Z,5.75
2022-10-11T04:59:49.221Z,4.97
2022-10-11T05:02:31.435Z,5.40
2022-10-11T05:34:04.238Z,5.13
2022-10-11T05:39:50.032Z,4.78
2022-10-11T05:42:45.277Z,4.80
2022-10-11T05:45:13.634Z,5.13
2022-10-11T05:47:42.031Z,4.80
2022-10-11T05:50:11.793Z,5.13
2022-10-11T05:52:40.386Z,4.53
2022-10-11T05:55:09.488Z,4.80
2022-10-11T05:57:37.850Z,5.07
2022-10-11T06:00:06.871Z,5.03
2022-10-11T06:02:40.862Z,4.97
2022-10-11T06:05:09.585Z,5.00
2022-10-11T06:07:40.163Z,4.88
2022-10-11T06:10:08.853Z,5.15
2022-10-11T06:12:37.036Z,5.60
2022-10-11T06:15:06.333Z,4.90
2022-10-11T06:17:34.902Z,5.30
2022-10-11T06:20:03.937Z,5.18
2022-10-11T06:22:32.486Z,4.75
2022-10-11T06:25:02.028Z,5.60
2022-10-11T06:27:30.511Z,5.03
2022-10-11T06:29:58.948Z,5.10
2022-10-11T06:32:27.134Z,5.07
2022-10-11T06:34:55.559Z,5.00
2022-10-11T06:37:23.693Z,5.60
2022-10-11T06:39:52.189Z,5.13
2022-10-11T06:42:21.599Z,5.70
2022-10-11T06:44:49.937Z,5.75
2022-10-11T06:47:18.343Z,5.10
2022-10-11T06:49:46.730Z,5.68
2022-10-11T06:52:15.158Z,5.80
2022-10-11T06:54:45.040Z,6.97
2022-10-11T06:57:13.926Z,5.82
2022-10-11T06:59:43.324Z,6.50
2022-10-11T07:02:11.617Z,6.30
2022-10-11T07:04:40.014Z,6.03
2022-10-11T07:07:08.388Z,6.18
2022-10-11T07:09:36.419Z,6.20
2022-10-11T07:12:04.864Z,5.45
2022-10-11T07:14:33.382Z,5.72
2022-10-11T07:17:03.053Z,5.77
2022-10-11T07:19:31.581Z,5.68
2022-10-11T07:22:01.175Z,6.35
2022-10-11T07:24:34.770Z,6.30
2022-10-11T07:27:03.269Z,6.63
2022-10-11T07:29:31.574Z,6.67
2022-10-11T07:32:00.008Z,6.25
2022-10-11T07:34:29.547Z,7.35
2022-10-11T07:36:59.358Z,7.18
2022-10-11T07:39:27.894Z,7.30
2022-10-11T07:41:58.419Z,7.23
2022-10-11T07:44:32.052Z,7.07
2022-10-11T07:47:00.766Z,7.60
2022-10-11T07:49:30.522Z,6.95
2022-10-11T07:51:59.046Z,7.30
2022-10-11T07:54:27.502Z,7.17
2022-10-11T07:56:56.086Z,7.30
2022-10-11T07:59:27.327Z,7.82
2022-10-11T08:01:55.928Z,7.28
2022-10-11T08:04:24.420Z,8.00
2022-10-11T08:06:54.019Z,7.87
2022-10-11T08:09:22.542Z,8.25
2022-10-11T08:11:51.100Z,8.27
2022-10-11T08:14:19.617Z,8.10
2022-10-11T08:16:48.220Z,8.98
2022-10-11T08:19:18.575Z,7.80
2022-10-11T08:21:49.950Z,8.27
2022-10-11T08:24:20.974Z,8.02
2022-10-11T08:26:49.576Z,9.07
2022-10-11T08:29:18.001Z,7.60
2022-10-11T08:31:46.603Z,8.57
2022-10-11T08:34:15.126Z,8.27
2022-10-11T08:36:43.378Z,8.75
2022-10-11T08:39:12.252Z,7.78
2022-10-11T08:41:46.557Z,7.85
2022-10-11T08:44:23.155Z,7.57
2022-10-11T08:47:00.458Z,7.78
2022-10-11T08:49:31.125Z,8.15
2022-10-11T08:52:04.505Z,7.85
2022-10-11T08:54:43.091Z,7.85
2022-10-11T08:57:21.449Z,7.83
2022-10-11T08:59:54.093Z,7.72
2022-10-11T09:02:55.486Z,8.13
2022-10-11T09:05:26.141Z,8.20
2022-10-11T09:08:02.326Z,8.25
2022-10-11T09:10:54.484Z,8.53
2022-10-11T09:13:41.602Z,7.13
2022-10-11T09:16:18.922Z,7.10
2022-10-11T09:19:01.957Z,8.23
2022-10-11T09:21:37.060Z,8.02
2022-10-11T09:24:38.987Z,7.67
2022-10-11T09:27:15.240Z,6.97
2022-10-11T09:29:55.767Z,7.10
2022-10-11T09:32:31.305Z,7.00
2022-10-11T09:35:02.787Z,6.63
2022-10-11T09:37:44.343Z,6.07
2022-10-11T09:40:30.839Z,6.57
2022-10-11T09:42:59.428Z,5.75
2022-10-11T09:45:29.053Z,4.65
2022-10-11T09:48:00.654Z,5.75
2022-10-11T09:50:30.729Z,5.87
2022-10-11T09:53:01.514Z,6.30
2022-10-11T09:55:35.780Z,6.30
2022-10-11T09:58:04.689Z,5.93
2022-10-11T10:00:34.632Z,6.18
2022-10-11T10:03:04.381Z,6.60
2022-10-11T10:05:33.822Z,6.43
2022-10-11T10:08:24.457Z,6.40
2022-10-11T10:14:29.019Z,6.45
2022-10-11T10:21:42.506Z,6.18
2022-10-11T10:24:38.779Z,6.80
2022-10-11T10:31:27.182Z,6.20
2022-10-11T10:34:10.024Z,5.67
2022-10-11T10:41:13.543Z,5.32
2022-10-11T10:43:53.857Z,5.80
2022-10-11T10:50:36.907Z,5.87
2022-10-11T10:53:33.407Z,4.80
2022-10-11T10:56:16.444Z,5.20
2022-10-11T10:59:04.538Z,4.78
2022-10-11T11:02:39.607Z,4.50
2022-10-11T11:05:18.938Z,4.90
2022-10-11T11:18:39.750Z,4.45
2022-10-11T11:21:27.981Z,4.60
2022-10-11T11:24:06.643Z,4.70
2022-10-11T11:26:44.390Z,5.15
2022-10-11T11:29:30.944Z,4.83
2022-10-11T11:32:12.401Z,4.95
2022-10-11T11:34:46.583Z,4.50
2022-10-11T11:37:24.825Z,4.90
2022-10-11T11:39:58.282Z,4.85
2022-10-11T11:42:32.439Z,4.83
2022-10-11T11:45:06.703Z,4.68
2022-10-11T11:47:39.046Z,4.65
2022-10-11T11:50:22.649Z,5.00
2022-10-11T11:52:53.660Z,4.93
2022-10-11T11:55:38.526Z,4.90
2022-10-11T11:58:23.882Z,4.85
2022-10-11T12:00:59.658Z,4.95
2022-10-11T12:03:32.282Z,6.47
2022-10-11T12:06:47.680Z,5.40
2022-10-11T12:09:26.361Z,4.80
2022-10-11T12:11:57.614Z,4.82
2022-10-11T12:14:35.116Z,5.25
2022-10-11T12:17:27.218Z,5.20
2022-10-11T12:20:16.617Z,4.90
2022-10-11T12:23:01.270Z,4.93
2022-10-11T12:25:40.336Z,4.50
2022-10-11T12:28:49.365Z,4.55
2022-10-11T12:31:45.866Z,4.38
2022-10-11T12:34:35.374Z,3.83
2022-10-11T14:02:50.978Z,4.97
2022-10-11T15:43:46.657Z,4.60
2022-10-11T15:46:30.771Z,4.00
2022-10-11T15:49:03.261Z,3.75
2022-10-11T15:51:39.834Z,4.40
2022-10-11T15:54:54.973Z,4.45
2022-10-11T15:57:24.867Z,4.67
2022-10-11T15:59:54.936Z,4.90
2022-10-11T16:02:32.180Z,4.82
2022-10-11T16:05:27.487Z,5.22
2022-10-11T16:07:58.678Z,4.88
2022-10-11T16:10:27.202Z,5.23
2022-10-11T16:13:09.518Z,5.30
2022-10-11T16:15:44.863Z,5.68
2022-10-11T16:18:20.297Z,5.15
2022-10-11T16:20:51.151Z,6.63
2022-10-11T16:23:21.984Z,6.30
2022-10-11T16:26:09.098Z,6.20
2022-10-11T16:28:40.217Z,5.65
2022-10-11T16:31:20.674Z,6.03
2022-10-11T16:33:52.946Z,6.03
2022-10-11T16:36:52.767Z,6.83
2022-10-11T16:39:21.209Z,6.53
2022-10-11T16:41:56.575Z,6.65
2022-10-11T16:44:27.802Z,6.18
2022-10-11T16:46:57.446Z,6.35
2022-10-11T16:49:28.657Z,6.20
2022-10-11T16:51:59.280Z,6.28
2022-10-11T16:54:29.475Z,5.90
2022-10-11T16:56:59.775Z,6.15
2022-10-11T16:59:28.901Z,6.30
2022-10-11T17:02:01.477Z,6.10
2022-10-11T17:04:29.929Z,6.57
2022-10-11T17:06:58.651Z,6.50
2022-10-11T17:09:27.252Z,7.03
2022-10-11T17:11:55.731Z,6.22
2022-10-11T17:14:25.854Z,7.23
2022-10-11T17:16:57.467Z,5.90
2022-10-11T17:19:27.114Z,7.15
2022-10-11T17:21:58.074Z,7.15
2022-10-11T17:24:27.258Z,6.30
2022-10-11T17:30:36.141Z,7.43
2022-10-11T17:33:07.565Z,6.80
2022-10-11T17:36:17.348Z,6.75
2022-10-11T17:38:50.451Z,7.25
2022-10-11T17:41:22.206Z,7.40
2022-10-11T17:43:50.775Z,7.38
2022-10-11T17:46:21.629Z,7.32
2022-10-11T17:53:11.077Z,7.63
2022-10-11T17:56:37.957Z,7.97
2022-10-11T17:59:31.010Z,8.20
2022-10-11T18:02:00.130Z,7.53
2022-10-11T18:04:30.032Z,7.40
2022-10-11T18:07:03.229Z,7.45
2022-10-11T18:09:37.538Z,7.80
2022-10-11T18:12:08.675Z,7.57
2022-10-11T18:14:40.944Z,7.68
2022-10-11T18:17:22.731Z,7.85
2022-10-11T18:19:51.318Z,7.90
2022-10-11T18:22:25.657Z,7.73
2022-10-11T18:24:56.719Z,6.93
2022-10-11T18:27:25.228Z,8.10
2022-10-11T18:29:54.871Z,8.20
2022-10-11T18:32:23.454Z,8.23
2022-10-11T18:35:01.099Z,8.53
2022-10-11T18:37:30.712Z,9.07
2022-10-11T18:40:05.232Z,8.57
2022-10-11T18:42:36.483Z,8.52
2022-10-11T18:45:09.280Z,8.70
2022-10-11T18:47:37.725Z,8.37
2022-10-11T18:50:09.050Z,8.23
2022-10-11T18:52:43.782Z,7.30
2022-10-11T18:55:37.385Z,8.02
2022-10-11T18:58:16.506Z,7.32
2022-10-11T19:00:48.802Z,8.13
2022-10-11T19:03:19.538Z,7.53
2022-10-11T19:05:48.227Z,7.80
2022-10-11T19:08:16.661Z,7.70
2022-10-11T19:10:45.577Z,7.75
2022-10-11T19:13:24.971Z,8.43
2022-10-11T19:15:58.262Z,7.97
2022-10-11T19:18:28.247Z,8.23
2022-10-11T19:20:56.961Z,8.63
2022-10-11T19:23:30.097Z,8.70
2022-10-11T19:26:19.196Z,7.57
2022-10-11T19:28:48.210Z,8.18
2022-10-11T19:31:25.703Z,7.97
2022-10-11T19:33:54.402Z,8.13
2022-10-11T19:36:22.930Z,8.90
2022-10-11T19:38:56.840Z,8.33
2022-10-11T19:41:27.407Z,8.32
2022-10-11T19:43:58.100Z,8.77
2022-10-11T19:49:20.391Z,9.32
2022-10-11T19:52:06.545Z,8.90
2022-10-11T19:54:35.101Z,8.25
2022-10-11T19:57:07.302Z,8.40
2022-10-11T19:59:35.967Z,8.50
2022-10-11T20:02:08.240Z,8.88
2022-10-11T20:04:52.861Z,9.37
2022-10-11T20:07:25.179Z,9.27
2022-10-11T20:09:53.735Z,9.05
2022-10-11T20:12:22.518Z,15.93
2022-10-11T20:14:51.014Z,27.83
2022-10-11T20:17:20.619Z,21.83
2022-10-11T20:19:49.203Z,14.57
2022-10-11T20:22:17.615Z,12.18
2022-10-11T20:24:46.050Z,15.60
2022-10-11T20:27:14.245Z,47.80
2022-10-11T20:29:42.338Z,41.40
2022-10-11T20:32:10.887Z,58.22
2022-10-11T20:34:40.546Z,15.20
2022-10-11T20:37:09.005Z,11.50
2022-10-11T20:39:39.932Z,58.08
2022-10-11T20:42:08.005Z,51.63
2022-10-11T20:44:36.380Z,31.50
2022-10-11T20:47:05.103Z,16.08
2022-10-11T20:49:33.593Z,23.83
2022-10-11T20:52:03.160Z,28.83
2022-10-11T20:54:31.790Z,11.53
2022-10-11T20:57:00.391Z,13.02
2022-10-11T20:59:28.751Z,19.25
2022-10-11T21:01:57.204Z,37.05
2022-10-11T21:04:25.628Z,36.17
2022-10-11T21:06:54.132Z,49.23
2022-10-11T21:09:23.751Z,58.28
2022-10-11T21:11:53.067Z,13.25
2022-10-11T21:14:21.423Z,18.85
2022-10-11T21:16:49.800Z,22.50
2022-10-11T21:19:20.193Z,21.03
2022-10-11T21:21:53.522Z,15.15
2022-10-11T21:24:25.240Z,11.20
2022-10-11T21:26:58.189Z,10.68
2022-10-11T21:29:28.504Z,11.23
2022-10-11T21:31:56.877Z,11.57
2022-10-11T21:34:25.353Z,11.13
2022-10-11T21:36:53.751Z,11.27
2022-10-11T21:39:22.215Z,11.95
2022-10-11T21:41:51.754Z,11.50
2022-10-11T21:44:20.249Z,11.37
2022-10-11T21:47:05.936Z,10.93
2022-10-11T21:49:35.300Z,10.70
2022-10-11T21:52:03.837Z,10.00
2022-10-11T21:54:32.283Z,10.02
2022-10-11T21:57:01.795Z,10.60
2022-10-11T21:59:29.844Z,11.80
2022-10-11T22:02:01.855Z,10.40
2022-10-11T22:04:30.239Z,10.48
2022-10-11T22:06:58.590Z,10.40
2022-10-11T22:09:28.161Z,11.03
2022-10-11T22:11:56.811Z,11.27
2022-10-11T22:14:27.085Z,11.90
2022-10-11T22:16:55.637Z,13.45
2022-10-11T22:19:24.114Z,13.85
2022-10-11T22:21:52.411Z,13.23
2022-10-11T22:24:20.827Z,12.23
2022-10-11T22:26:49.211Z,11.10
2022-10-11T22:29:17.592Z,10.80
2022-10-11T22:31:47.161Z,10.48
2022-10-11T22:34:15.259Z,11.53
2022-10-11T22:36:43.599Z,12.13
2022-10-11T22:39:12.106Z,12.30
2022-10-11T22:41:40.560Z,12.88
2022-10-11T22:44:08.971Z,12.57
2022-10-11T22:46:37.321Z,11.10
2022-10-11T22:49:07.489Z,11.52
2022-10-11T22:51:37.784Z,11.27
2022-10-11T22:54:06.179Z,11.65
2022-10-11T22:56:34.564Z,11.32
2022-10-11T22:59:02.895Z,12.60
2022-10-11T23:01:31.300Z,12.90
2022-10-11T23:03:59.786Z,12.70
2022-10-11T23:06:29.203Z,12.30
2022-10-11T23:09:00.272Z,12.93
2022-10-11T23:11:28.622Z,11.97
2022-10-11T23:13:56.963Z,12.80
2022-10-11T23:16:25.276Z,14.35
2022-10-11T23:18:54.183Z,15.65
2022-10-11T23:21:22.768Z,15.65
2022-10-11T23:23:55.735Z,14.77
2022-10-11T23:26:24.066Z,14.35
2022-10-11T23:28:55.256Z,12.55
2022-10-11T23:31:23.833Z,13.43
2022-10-11T23:33:51.841Z,16.83
2022-10-11T23:36:21.682Z,17.43
2022-10-11T23:38:53.214Z,18.38
2022-10-11T23:41:24.310Z,14.98
2022-10-11T23:43:52.639Z,13.40
2022-10-11T23:46:21.011Z,13.48
2022-10-11T23:48:49.403Z,12.80
2022-10-11T23:51:18.063Z,13.13
2022-10-11T23:53:46.455Z,11.50
2022-10-11T23:56:14.845Z,13.18
2022-10-11T23:58:44.313Z,12.25
